createdAt,value
2023-05-20T00:01:55.064Z,19.27
2023-05-20T00:04:22.474Z,19.24
2023-05-20T00:06:50.221Z,19.22
2023-05-20T00:09:19.635Z,19.18
2023-05-20T00:11:47.207Z,19.15
2023-05-20T00:14:14.767Z,19.11
2023-05-20T00:16:41.900Z,19.12
2023-05-20T00:19:10.331Z,19.09
2023-05-20T00:21:37.613Z,19.07
2023-05-20T00:24:06.891Z,19.08
2023-05-20T00:26:34.050Z,19.04
2023-05-20T00:29:04.857Z,19.03
2023-05-20T00:31:31.958Z,19.02
2023-05-20T00:34:00.036Z,19.01
2023-05-20T00:36:27.575Z,18.99
2023-05-20T00:38:54.889Z,18.97
2023-05-20T00:41:24.434Z,18.95
2023-05-20T00:43:55.817Z,18.93
2023-05-20T00:46:24.372Z,18.91
2023-05-20T00:48:51.968Z,18.87
2023-05-20T00:51:19.105Z,18.85
2023-05-20T00:53:46.601Z,18.81
2023-05-20T00:56:14.413Z,18.81
2023-05-20T00:58:41.901Z,18.81
2023-05-20T01:01:09.020Z,18.78
2023-05-20T01:03:36.579Z,18.76
2023-05-20T01:06:03.937Z,18.78
2023-05-20T01:08:32.446Z,18.79
2023-05-20T01:11:26.792Z,18.81
2023-05-20T01:14:01.602Z,18.83
2023-05-20T01:16:30.873Z,18.83
2023-05-20T01:19:01.103Z,18.81
2023-05-20T01:21:30.817Z,18.78
2023-05-20T01:23:58.292Z,18.80
2023-05-20T01:26:27.313Z,18.76
2023-05-20T01:28:54.822Z,18.73
2023-05-20T01:31:26.292Z,18.70
2023-05-20T01:34:00.123Z,18.68
2023-05-20T01:36:29.293Z,18.64
2023-05-20T01:38:58.183Z,18.63
2023-05-20T01:41:27.460Z,18.60
2023-05-20T01:43:56.107Z,18.57
2023-05-20T01:46:23.316Z,18.56
2023-05-20T01:48:50.838Z,18.55
2023-05-20T01:51:18.030Z,18.56
2023-05-20T01:53:46.488Z,18.55
2023-05-20T01:56:13.583Z,18.52
2023-05-20T01:58:43.044Z,18.51
2023-05-20T02:01:10.119Z,18.49
2023-05-20T02:03:37.490Z,18.47
2023-05-20T02:06:05.660Z,18.42
2023-05-20T02:08:32.932Z,18.41
2023-05-20T02:11:00.170Z,18.39
2023-05-20T02:13:27.916Z,18.36
2023-05-20T02:15:55.126Z,18.34
2023-05-20T02:18:22.688Z,18.30
2023-05-20T02:20:50.868Z,18.33
2023-05-20T02:23:18.419Z,18.28
2023-05-20T02:25:46.161Z,18.27
2023-05-20T02:28:13.672Z,18.24
2023-05-20T02:30:41.242Z,18.20
2023-05-20T02:33:10.294Z,18.17
2023-05-20T02:35:37.381Z,18.17
2023-05-20T02:38:04.850Z,18.16
2023-05-20T02:40:32.783Z,18.13
2023-05-20T02:43:01.987Z,18.12
2023-05-20T02:45:29.074Z,18.10
2023-05-20T02:47:57.101Z,18.12
2023-05-20T02:50:25.554Z,18.15
2023-05-20T02:52:52.966Z,18.19
2023-05-20T02:55:20.270Z,18.21
2023-05-20T02:57:47.635Z,18.22
2023-05-20T03:00:16.823Z,18.26
2023-05-20T03:02:44.527Z,18.31
2023-05-20T03:05:12.700Z,18.36
2023-05-20T03:07:40.266Z,18.33
2023-05-20T03:10:08.782Z,18.26
2023-05-20T03:12:37.535Z,18.23
2023-05-20T03:15:06.608Z,18.19
2023-05-20T03:17:34.078Z,18.15
2023-05-20T03:20:04.245Z,18.13
2023-05-20T03:22:31.738Z,18.10
2023-05-20T03:25:03.677Z,18.08
2023-05-20T03:27:31.333Z,18.14
2023-05-20T03:30:02.908Z,18.09
2023-05-20T03:32:32.797Z,18.12
2023-05-20T03:35:02.719Z,18.14
2023-05-20T03:37:32.552Z,18.15
2023-05-20T03:39:59.601Z,18.16
2023-05-20T03:42:35.302Z,18.18
2023-05-20T03:45:04.572Z,18.21
2023-05-20T03:47:33.431Z,18.22
2023-05-20T03:50:00.372Z,18.25
2023-05-20T03:52:27.837Z,18.28
2023-05-20T03:55:01.530Z,18.33
2023-05-20T03:57:32.631Z,18.41
2023-05-20T04:00:00.132Z,18.63
2023-05-20T04:11:54.942Z,20.32
2023-05-20T04:14:22.123Z,20.38
2023-05-20T04:16:50.457Z,20.27
2023-05-20T04:19:19.800Z,20.17
2023-05-20T04:21:47.339Z,20.03
2023-05-20T04:24:14.732Z,19.83
2023-05-20T04:32:23.154Z,19.53
2023-05-20T04:35:00.027Z,19.50
2023-05-20T04:37:27.029Z,19.55
2023-05-20T04:39:55.057Z,19.65
2023-05-20T04:42:22.678Z,19.84
2023-05-20T04:44:50.500Z,19.90
2023-05-20T04:47:17.611Z,19.94
2023-05-20T04:49:46.014Z,20.09
2023-05-20T04:52:13.125Z,20.26
2023-05-20T04:54:41.254Z,20.54
2023-05-20T04:57:09.089Z,20.77
2023-05-20T04:59:37.580Z,21.01
2023-05-20T05:02:05.595Z,21.19
2023-05-20T05:04:33.626Z,21.48
2023-05-20T05:07:00.884Z,21.83
2023-05-20T05:09:28.398Z,22.17
2023-05-20T05:11:55.895Z,22.56
2023-05-20T05:14:23.902Z,22.89
2023-05-20T05:16:54.933Z,22.88
2023-05-20T05:19:23.528Z,22.81
2023-05-20T05:21:51.765Z,22.84
2023-05-20T05:24:19.505Z,23.03
2023-05-20T05:26:46.677Z,23.19
2023-05-20T05:29:15.106Z,23.23
2023-05-20T05:31:42.557Z,23.37
2023-05-20T05:34:10.110Z,23.50
2023-05-20T05:36:40.556Z,23.56
2023-05-20T05:39:09.950Z,23.58
2023-05-20T05:41:40.232Z,23.49
2023-05-20T05:44:16.686Z,23.48
2023-05-20T05:46:43.906Z,23.58
2023-05-20T05:49:12.420Z,23.51
2023-05-20T05:51:39.589Z,23.34
2023-05-20T05:54:07.953Z,22.85
2023-05-20T05:56:39.224Z,22.64
2023-05-20T05:59:07.488Z,22.48
2023-05-20T06:01:34.997Z,22.21
2023-05-20T06:04:03.229Z,22.17
2023-05-20T06:06:39.737Z,22.20
2023-05-20T06:09:08.972Z,22.36
2023-05-20T06:11:37.200Z,22.29
2023-05-20T06:14:07.178Z,22.05
2023-05-20T06:16:35.728Z,21.96
2023-05-20T06:19:05.746Z,21.85
2023-05-20T06:24:31.107Z,22.20
2023-05-20T06:33:20.330Z,22.43
2023-05-20T06:38:58.767Z,22.38
2023-05-20T06:41:26.812Z,22.26
2023-05-20T06:43:57.114Z,22.26
2023-05-20T06:46:30.345Z,22.10
2023-05-20T06:57:55.361Z,22.22
2023-05-20T07:00:23.191Z,22.34
2023-05-20T07:02:56.879Z,22.47
2023-05-20T07:05:24.664Z,22.62
2023-05-20T07:07:52.159Z,22.77
2023-05-20T07:10:19.368Z,22.78
2023-05-20T07:12:46.952Z,22.78
2023-05-20T07:15:15.370Z,22.79
2023-05-20T07:17:42.904Z,22.88
2023-05-20T07:20:10.476Z,22.97
2023-05-20T07:22:37.929Z,23.05
2023-05-20T07:25:05.812Z,23.06
2023-05-20T07:27:33.271Z,23.13
2023-05-20T07:30:00.450Z,23.27
2023-05-20T07:32:28.263Z,23.20
2023-05-20T07:34:57.997Z,23.12
2023-05-20T07:37:25.407Z,23.20
2023-05-20T07:39:52.509Z,23.29
2023-05-20T07:42:20.080Z,23.44
2023-05-20T07:44:47.200Z,23.57
2023-05-20T07:47:15.712Z,23.57
2023-05-20T07:49:44.540Z,23.57
2023-05-20T07:52:12.454Z,23.66
2023-05-20T07:54:39.753Z,23.87
2023-05-20T07:57:07.312Z,23.95
2023-05-20T07:59:34.524Z,24.01
2023-05-20T08:02:02.170Z,24.24
2023-05-20T08:04:29.614Z,24.50
2023-05-20T08:06:58.693Z,24.80
2023-05-20T08:09:26.030Z,25.23
2023-05-20T08:11:53.814Z,25.54
2023-05-20T08:14:21.055Z,25.80
2023-05-20T08:16:48.595Z,25.95
2023-05-20T08:19:15.802Z,25.92
2023-05-20T08:21:44.729Z,25.95
2023-05-20T08:27:33.409Z,26.03
2023-05-20T08:30:01.175Z,26.37
2023-05-20T08:32:28.437Z,26.66
2023-05-20T08:34:56.374Z,26.46
2023-05-20T08:40:13.739Z,27.72
2023-05-20T08:42:44.705Z,27.92
2023-05-20T08:45:17.765Z,28.58
2023-05-20T08:47:45.019Z,29.25
2023-05-20T08:50:14.114Z,29.54
2023-05-20T08:52:46.571Z,29.53
2023-05-20T08:55:30.379Z,29.66
2023-05-20T08:57:58.192Z,29.50
2023-05-20T09:00:33.900Z,29.64
2023-05-20T09:03:04.449Z,30.11
2023-05-20T09:05:32.405Z,30.35
2023-05-20T09:08:12.816Z,30.25
2023-05-20T09:10:42.004Z,30.27
2023-05-20T09:13:12.123Z,30.57
2023-05-20T09:15:40.561Z,30.71
2023-05-20T09:18:09.102Z,31.12
2023-05-20T09:20:42.126Z,31.02
2023-05-20T09:23:10.372Z,30.06
2023-05-20T09:25:38.072Z,29.33
2023-05-20T09:28:07.742Z,28.95
2023-05-20T09:30:35.508Z,28.53
2023-05-20T09:33:05.527Z,27.91
2023-05-20T09:35:39.420Z,27.34
2023-05-20T09:38:09.276Z,26.92
2023-05-20T09:40:39.002Z,26.68
2023-05-20T09:43:08.054Z,26.55
2023-05-20T09:45:37.594Z,26.41
2023-05-20T09:48:13.594Z,26.31
2023-05-20T09:50:42.847Z,26.19
2023-05-20T09:53:12.716Z,26.18
2023-05-20T09:55:46.510Z,26.15
2023-05-20T10:00:59.344Z,26.66
2023-05-20T10:03:36.117Z,26.68
2023-05-20T10:06:10.056Z,26.64
2023-05-20T10:08:55.744Z,26.47
2023-05-20T10:12:02.257Z,26.31
2023-05-20T10:14:42.296Z,26.19
2023-05-20T10:17:37.567Z,26.05
2023-05-20T10:20:21.829Z,26.00
2023-05-20T10:23:00.372Z,25.93
2023-05-20T10:28:36.720Z,25.90
2023-05-20T10:31:18.559Z,25.92
2023-05-20T10:34:08.124Z,25.99
2023-05-20T10:36:35.459Z,26.08
2023-05-20T10:39:04.987Z,26.17
2023-05-20T10:44:27.209Z,26.21
2023-05-20T10:47:21.094Z,26.20
2023-05-20T10:52:39.822Z,27.45
2023-05-20T10:55:11.362Z,27.21
2023-05-20T10:57:38.802Z,27.11
2023-05-20T11:00:11.169Z,27.02
2023-05-20T11:08:27.287Z,26.71
2023-05-20T11:10:59.790Z,26.73
2023-05-20T11:13:27.999Z,26.77
2023-05-20T11:16:10.332Z,26.81
2023-05-20T11:18:42.871Z,26.83
2023-05-20T11:21:12.335Z,26.79
2023-05-20T11:23:46.797Z,26.65
2023-05-20T11:26:21.164Z,26.51
2023-05-20T11:32:00.305Z,26.11
2023-05-20T11:34:37.817Z,25.96
2023-05-20T11:37:09.995Z,25.86
2023-05-20T11:39:42.024Z,25.75
2023-05-20T11:42:09.527Z,25.61
2023-05-20T11:44:50.138Z,25.55
2023-05-20T11:47:25.362Z,25.55
2023-05-20T11:49:52.910Z,25.64
2023-05-20T11:52:20.265Z,25.80
2023-05-20T11:54:54.357Z,26.07
2023-05-20T11:57:21.415Z,26.43
2023-05-20T11:59:49.704Z,26.45
2023-05-20T12:02:16.846Z,26.61
2023-05-20T12:04:45.950Z,27.21
2023-05-20T12:07:17.581Z,27.09
2023-05-20T12:09:46.599Z,27.25
2023-05-20T12:12:14.340Z,27.83
2023-05-20T12:14:41.705Z,28.21
2023-05-20T12:17:08.931Z,28.37
2023-05-20T12:19:45.782Z,28.49
2023-05-20T12:22:13.132Z,27.98
2023-05-20T12:24:41.291Z,27.33
2023-05-20T12:27:09.735Z,26.90
2023-05-20T12:29:37.844Z,26.59
2023-05-20T12:32:08.538Z,26.27
2023-05-20T12:34:41.959Z,26.12
2023-05-20T12:37:09.307Z,26.04
2023-05-20T12:39:39.403Z,26.01
2023-05-20T12:42:07.211Z,25.99
2023-05-20T12:44:35.241Z,26.28
2023-05-20T12:47:03.280Z,26.43
2023-05-20T12:49:33.970Z,26.49
2023-05-20T12:52:11.907Z,26.46
2023-05-20T12:54:47.177Z,26.68
2023-05-20T12:57:14.656Z,26.94
2023-05-20T12:59:42.234Z,27.12
2023-05-20T13:02:10.892Z,27.08
2023-05-20T13:04:38.425Z,27.11
2023-05-20T13:07:08.739Z,27.01
2023-05-20T13:09:36.392Z,26.83
2023-05-20T13:12:06.146Z,26.69
2023-05-20T13:14:48.955Z,26.82
2023-05-20T13:17:17.224Z,26.97
2023-05-20T13:19:46.604Z,27.16
2023-05-20T13:22:14.263Z,27.01
2023-05-20T13:24:43.935Z,26.84
2023-05-20T13:27:12.234Z,26.74
2023-05-20T13:29:39.539Z,26.63
2023-05-20T13:32:07.188Z,26.48
2023-05-20T13:34:34.619Z,26.35
2023-05-20T13:37:02.200Z,26.34
2023-05-20T13:39:29.829Z,26.41
2023-05-20T13:41:59.253Z,26.42
2023-05-20T13:44:27.716Z,26.51
2023-05-20T13:46:56.118Z,26.55
2023-05-20T14:13:12.981Z,25.26
2023-05-20T14:15:40.692Z,24.84
2023-05-20T14:18:08.561Z,24.69
2023-05-20T14:20:43.763Z,24.63
2023-05-20T14:23:15.641Z,24.75
2023-05-20T14:25:47.691Z,24.88
2023-05-20T14:31:23.171Z,25.20
2023-05-20T14:36:59.589Z,25.43
2023-05-20T14:45:45.038Z,25.37
2023-05-20T14:48:15.874Z,25.46
2023-05-20T14:56:44.622Z,25.72
2023-05-20T15:02:08.203Z,25.66
2023-05-20T15:07:39.536Z,25.75
2023-05-20T15:18:55.365Z,26.15
2023-05-20T15:21:43.436Z,26.19
2023-05-20T15:32:23.966Z,25.89
2023-05-20T15:34:53.257Z,25.80
2023-05-20T15:37:21.750Z,25.76
2023-05-20T15:42:33.734Z,25.74
2023-05-20T15:45:04.047Z,25.62
2023-05-20T15:47:32.404Z,25.62
2023-05-20T15:50:03.242Z,25.62
2023-05-20T15:52:41.929Z,25.63
2023-05-20T15:55:30.451Z,25.66
2023-05-20T16:03:47.113Z,25.53
2023-05-20T16:06:18.810Z,25.43
2023-05-20T16:09:02.203Z,25.38
2023-05-20T16:11:33.195Z,25.30
2023-05-20T16:14:00.649Z,25.25
2023-05-20T16:16:52.233Z,25.20
2023-05-20T16:19:20.227Z,25.21
2023-05-20T16:21:47.907Z,25.24
2023-05-20T16:24:15.896Z,25.27
2023-05-20T16:26:43.888Z,25.29
2023-05-20T16:29:11.255Z,25.24
2023-05-20T16:31:39.022Z,25.21
2023-05-20T16:34:06.790Z,25.16
2023-05-20T16:36:34.271Z,25.04
2023-05-20T16:39:02.725Z,24.86
2023-05-20T16:41:31.526Z,24.80
2023-05-20T16:43:58.808Z,24.71
2023-05-20T16:46:29.041Z,24.59
2023-05-20T16:48:56.504Z,24.52
2023-05-20T16:51:24.460Z,24.46
2023-05-20T16:53:51.537Z,24.36
2023-05-20T16:56:23.177Z,24.36
2023-05-20T16:58:52.811Z,24.28
2023-05-20T17:01:23.173Z,24.19
2023-05-20T17:03:51.612Z,24.11
2023-05-20T17:09:04.775Z,23.93
2023-05-20T17:11:32.563Z,23.83
2023-05-20T17:14:00.854Z,23.74
2023-05-20T17:16:29.259Z,23.62
2023-05-20T17:18:58.982Z,23.55
2023-05-20T17:21:33.455Z,23.50
2023-05-20T17:24:02.007Z,23.42
2023-05-20T17:26:29.913Z,23.32
2023-05-20T17:28:57.532Z,23.30
2023-05-20T17:31:25.409Z,23.25
2023-05-20T17:36:36.720Z,23.12
2023-05-20T17:39:11.250Z,23.09
2023-05-20T17:41:38.674Z,23.00
2023-05-20T17:44:07.547Z,22.95
2023-05-20T17:46:35.944Z,22.86
2023-05-20T17:49:03.525Z,22.82
2023-05-20T17:51:32.009Z,22.80
2023-05-20T17:54:03.837Z,22.73
2023-05-20T17:56:31.743Z,22.65
2023-05-20T17:58:59.154Z,22.56
2023-05-20T18:01:27.222Z,22.49
2023-05-20T18:03:54.562Z,22.43
2023-05-20T18:06:23.225Z,22.34
2023-05-20T18:08:50.656Z,22.27
2023-05-20T18:11:19.139Z,22.18
2023-05-20T18:13:46.467Z,22.08
2023-05-20T18:16:15.106Z,22.01
2023-05-20T18:18:42.283Z,21.92
2023-05-20T18:21:10.270Z,21.84
2023-05-20T18:23:41.213Z,21.79
2023-05-20T18:26:09.346Z,21.70
2023-05-20T18:28:42.033Z,21.60
2023-05-20T18:31:09.804Z,21.56
2023-05-20T18:33:41.196Z,21.47
2023-05-20T18:36:09.481Z,21.41
2023-05-20T18:38:37.509Z,21.34
2023-05-20T18:41:06.654Z,21.28
2023-05-20T18:43:33.826Z,21.29
2023-05-20T18:46:01.621Z,21.26
2023-05-20T18:48:32.634Z,21.28
2023-05-20T18:51:00.183Z,21.21
2023-05-20T18:53:28.092Z,21.18
2023-05-20T18:55:57.269Z,21.14
2023-05-20T18:58:24.446Z,21.08
2023-05-20T19:03:44.393Z,21.00
2023-05-20T19:06:14.766Z,21.00
2023-05-20T19:08:43.748Z,21.00
2023-05-20T19:11:20.341Z,21.01
2023-05-20T19:13:47.751Z,20.98
2023-05-20T19:16:15.852Z,20.99
2023-05-20T19:18:43.801Z,20.96
2023-05-20T19:21:11.855Z,20.92
2023-05-20T19:26:45.729Z,20.89
2023-05-20T19:29:29.877Z,20.84
2023-05-20T19:32:00.896Z,20.79
2023-05-20T19:34:28.447Z,20.81
2023-05-20T19:36:58.018Z,20.75
2023-05-20T19:39:27.477Z,20.69
2023-05-20T19:41:54.737Z,20.67
2023-05-20T19:44:56.209Z,20.68
2023-05-20T19:47:23.497Z,20.62
2023-05-20T19:50:00.419Z,20.61
2023-05-20T19:52:29.319Z,20.59
2023-05-20T19:54:58.423Z,20.57
2023-05-20T19:57:26.135Z,20.58
2023-05-20T20:00:03.463Z,20.55
2023-05-20T20:02:32.021Z,20.57
2023-05-20T20:05:01.305Z,20.52
2023-05-20T20:07:29.082Z,20.47
2023-05-20T20:09:56.610Z,20.43
2023-05-20T20:12:23.905Z,20.37
2023-05-20T20:14:52.293Z,20.39
2023-05-20T20:17:20.718Z,20.38
2023-05-20T20:19:53.507Z,20.33
2023-05-20T20:22:20.938Z,20.26
2023-05-20T20:24:50.183Z,20.26
2023-05-20T20:27:19.896Z,20.22
2023-05-20T20:29:48.832Z,20.20
2023-05-20T20:32:17.805Z,20.17
2023-05-20T20:34:47.971Z,20.15
2023-05-20T20:37:19.937Z,20.15
2023-05-20T20:39:48.625Z,20.10
2023-05-20T20:42:17.019Z,20.12
2023-05-20T20:44:49.487Z,20.12
2023-05-20T20:47:17.780Z,20.12
2023-05-20T20:49:46.464Z,20.10
2023-05-20T20:52:19.479Z,20.12
2023-05-20T20:54:48.415Z,20.15
2023-05-20T20:57:17.647Z,20.14
2023-05-20T21:02:28.777Z,20.10
2023-05-20T21:04:59.279Z,20.07
2023-05-20T21:07:26.334Z,20.12
2023-05-20T21:09:55.269Z,20.13
2023-05-20T21:12:22.740Z,20.14
2023-05-20T21:14:50.760Z,20.13
2023-05-20T21:17:21.161Z,20.13
2023-05-20T21:19:51.162Z,20.11
2023-05-20T21:22:18.256Z,20.12
2023-05-20T21:24:47.757Z,20.14
2023-05-20T21:27:14.975Z,20.15
2023-05-20T21:29:45.154Z,20.14
2023-05-20T21:32:13.599Z,20.10
2023-05-20T21:34:43.433Z,20.09
2023-05-20T21:37:10.720Z,20.05
2023-05-20T21:39:41.968Z,20.00
2023-05-20T21:42:09.041Z,19.96
2023-05-20T21:44:40.196Z,19.96
2023-05-20T21:47:07.501Z,19.90
2023-05-20T21:49:34.882Z,19.93
2023-05-20T21:52:02.202Z,19.91
2023-05-20T21:54:29.631Z,19.91
2023-05-20T21:56:57.066Z,19.90
2023-05-20T21:59:24.740Z,19.94
2023-05-20T22:01:51.919Z,19.94
2023-05-20T22:04:19.535Z,19.92
2023-05-20T22:06:47.449Z,19.94
2023-05-20T22:09:14.953Z,19.92
2023-05-20T22:11:45.267Z,19.92
2023-05-20T22:14:16.389Z,19.94
2023-05-20T22:16:49.418Z,19.92
2023-05-20T22:19:18.016Z,19.92
2023-05-20T22:21:50.765Z,19.90
2023-05-20T22:24:19.105Z,19.88
2023-05-20T22:26:46.211Z,19.87
2023-05-20T22:29:14.982Z,19.86
2023-05-20T22:31:42.627Z,19.83
2023-05-20T22:34:10.048Z,19.82
2023-05-20T22:36:39.723Z,19.80
2023-05-20T22:39:07.330Z,19.80
2023-05-20T22:41:34.657Z,19.77
2023-05-20T22:44:02.028Z,19.76
2023-05-20T22:46:29.385Z,19.74
2023-05-20T22:49:01.873Z,19.75
2023-05-20T22:51:29.529Z,19.68
2023-05-20T22:53:58.465Z,19.69
2023-05-20T22:56:26.076Z,19.65
2023-05-20T22:58:54.089Z,19.63
2023-05-20T23:01:26.757Z,19.60
2023-05-20T23:03:54.285Z,19.58
2023-05-20T23:06:22.804Z,19.57
2023-05-20T23:08:51.049Z,19.57
2023-05-20T23:11:18.075Z,19.55
2023-05-20T23:13:45.563Z,19.52
2023-05-20T23:16:12.704Z,19.49
2023-05-20T23:18:41.184Z,19.47
2023-05-20T23:21:08.408Z,19.47
2023-05-20T23:23:36.782Z,19.44
2023-05-20T23:26:06.365Z,19.41
2023-05-20T23:28:34.843Z,19.39
2023-05-20T23:31:02.074Z,19.36
2023-05-20T23:33:29.877Z,19.33
2023-05-20T23:35:57.085Z,19.30
2023-05-20T23:38:24.880Z,19.33
2023-05-20T23:40:51.903Z,19.27
2023-05-20T23:43:19.484Z,19.28
2023-05-20T23:45:46.890Z,19.24
2023-05-20T23:48:14.634Z,19.20
2023-05-20T23:50:41.783Z,19.20
2023-05-20T23:53:09.598Z,19.19
2023-05-20T23:55:37.052Z,19.17
2023-05-20T23:58:04.503Z,19.16
